sensor_id;sensor_type;location;lat;lon;timestamp;pressure;altitude;pressure_sealevel;temperature;humidity
12913;BME280;6524;51.368;11.984;2023-06-14T10:16:05;100501.94;;;21.18;32.53
12913;BME280;6524;51.368;11.984;2023-06-14T10:26:28;100510.00;;;20.43;32.85
12913;BME280;6524;51.368;11.984;2023-06-14T10:31:48;100496.72;;;20.07;32.90
12913;BME280;6524;51.368;11.984;2023-06-14T10:37:12;100497.34;;;20.35;33.51
12913;BME280;6524;51.368;11.984;2023-06-14T10:42:14;100500.47;;;19.80;32.28
12913;BME280;6524;51.368;11.984;2023-06-14T10:47:32;100485.97;;;19.21;34.07
12913;BME280;6524;51.368;11.984;2023-06-14T10:52:34;100485.53;;;19.52;34.31
12913;BME280;6524;51.368;11.984;2023-06-14T10:57:39;100483.97;;;20.01;33.77
12913;BME280;6524;51.368;11.984;2023-06-14T11:02:59;100487.41;;;20.70;32.34
12913;BME280;6524;51.368;11.984;2023-06-14T11:13:18;100482.41;;;20.33;34.08
12913;BME280;6524;51.368;11.984;2023-06-14T11:18:21;100488.94;;;20.22;33.54
12913;BME280;6524;51.368;11.984;2023-06-14T11:23:25;100493.91;;;20.09;33.60
12913;BME280;6524;51.368;11.984;2023-06-14T11:28:36;100482.03;;;20.20;34.11
12913;BME280;6524;51.368;11.984;2023-06-14T11:33:37;100473.44;;;20.42;34.53
12913;BME280;6524;51.368;11.984;2023-06-14T11:38:37;100471.38;;;21.03;33.98
12913;BME280;6524;51.368;11.984;2023-06-14T11:43:41;100479.44;;;21.03;32.18
12913;BME280;6524;51.368;11.984;2023-06-14T11:48:48;100479.44;;;21.27;32.14
12913;BME280;6524;51.368;11.984;2023-06-14T11:53:49;100463.78;;;21.47;32.75
12913;BME280;6524;51.368;11.984;2023-06-14T11:58:49;100459.19;;;21.81;31.59
12913;BME280;6524;51.368;11.984;2023-06-14T12:03:53;100465.00;;;22.01;31.64
12913;BME280;6524;51.368;11.984;2023-06-14T12:08:56;100470.47;;;21.60;32.55
12913;BME280;6524;51.368;11.984;2023-06-14T12:13:56;100452.91;;;21.08;33.09
12913;BME280;6524;51.368;11.984;2023-06-14T12:19:00;100454.38;;;20.94;33.21
12913;BME280;6524;51.368;11.984;2023-06-14T12:24:03;100456.56;;;20.91;32.72
12913;BME280;6524;51.368;11.984;2023-06-14T12:29:05;100455.00;;;20.47;33.42
12913;BME280;6524;51.368;11.984;2023-06-14T12:34:07;100444.84;;;21.08;32.76
12913;BME280;6524;51.368;11.984;2023-06-14T12:39:08;100438.63;;;20.99;33.59
12913;BME280;6524;51.368;11.984;2023-06-14T12:44:10;100455.88;;;20.89;34.56
12913;BME280;6524;51.368;11.984;2023-06-14T12:49:13;100445.94;;;21.55;33.67
12913;BME280;6524;51.368;11.984;2023-06-14T12:54:14;100442.84;;;21.02;33.77
12913;BME280;6524;51.368;11.984;2023-06-14T12:59:15;100451.19;;;20.82;34.47
12913;BME280;6524;51.368;11.984;2023-06-14T13:04:15;100454.53;;;20.76;34.07
12913;BME280;6524;51.368;11.984;2023-06-14T13:09:16;100453.84;;;20.58;34.67
12913;BME280;6524;51.368;11.984;2023-06-14T13:14:17;100446.81;;;20.65;35.05
12913;BME280;6524;51.368;11.984;2023-06-14T13:19:17;100461.75;;;20.17;35.23
12913;BME280;6524;51.368;11.984;2023-06-14T13:24:18;100459.84;;;20.01;36.13
12913;BME280;6524;51.368;11.984;2023-06-14T13:29:18;100458.41;;;20.23;35.21
12913;BME280;6524;51.368;11.984;2023-06-14T13:34:19;100459.66;;;19.95;35.86
12913;BME280;6524;51.368;11.984;2023-06-14T13:39:21;100456.44;;;19.83;36.43
12913;BME280;6524;51.368;11.984;2023-06-14T13:44:21;100462.72;;;19.74;36.75
12913;BME280;6524;51.368;11.984;2023-06-14T13:49:22;100452.31;;;19.44;36.80
12913;BME280;6524;51.368;11.984;2023-06-14T13:54:23;100454.88;;;19.10;37.75
12913;BME280;6524;51.368;11.984;2023-06-14T13:59:23;100459.00;;;19.40;37.49
12913;BME280;6524;51.368;11.984;2023-06-14T14:04:24;100458.31;;;19.64;37.73
12913;BME280;6524;51.368;11.984;2023-06-14T14:09:26;100451.25;;;19.63;37.63
12913;BME280;6524;51.368;11.984;2023-06-14T14:14:28;100458.84;;;19.76;37.79
12913;BME280;6524;51.368;11.984;2023-06-14T14:19:30;100456.19;;;19.76;37.32
12913;BME280;6524;51.368;11.984;2023-06-14T14:24:31;100456.78;;;19.62;37.11
12913;BME280;6524;51.368;11.984;2023-06-14T14:29:38;100457.16;;;19.93;36.85
12913;BME280;6524;51.368;11.984;2023-06-14T14:34:40;100458.19;;;19.48;37.40
12913;BME280;6524;51.368;11.984;2023-06-14T14:39:41;100461.19;;;19.97;36.82
12913;BME280;6524;51.368;11.984;2023-06-14T14:44:44;100456.94;;;19.86;37.24
12913;BME280;6524;51.368;11.984;2023-06-14T14:49:51;100462.72;;;19.48;37.40
12913;BME280;6524;51.368;11.984;2023-06-14T14:54:53;100459.31;;;19.37;38.64
12913;BME280;6524;51.368;11.984;2023-06-14T15:00:11;100453.81;;;19.03;37.78
12913;BME280;6524;51.368;11.984;2023-06-14T15:05:17;100456.88;;;19.26;38.44
12913;BME280;6524;51.368;11.984;2023-06-14T15:10:27;100447.31;;;19.06;38.31
12913;BME280;6524;51.368;11.984;2023-06-14T15:15:42;100441.53;;;18.92;38.57
12913;BME280;6524;51.368;11.984;2023-06-14T15:20:43;100439.41;;;18.78;39.21
12913;BME280;6524;51.368;11.984;2023-06-14T15:25:50;100436.81;;;18.86;38.60
12913;BME280;6524;51.368;11.984;2023-06-14T15:31:12;100437.75;;;19.03;38.60
12913;BME280;6524;51.368;11.984;2023-06-14T15:36:14;100448.28;;;19.40;38.14
12913;BME280;6524;51.368;11.984;2023-06-14T15:41:17;100442.66;;;19.26;38.21
12913;BME280;6524;51.368;11.984;2023-06-14T15:46:23;100439.59;;;19.03;38.55
12913;BME280;6524;51.368;11.984;2023-06-14T16:17:28;100438.88;;;19.36;38.50
12913;BME280;6524;51.368;11.984;2023-06-14T16:22:29;100435.63;;;19.25;37.25
12913;BME280;6524;51.368;11.984;2023-06-14T16:27:29;100436.56;;;19.41;37.81
12913;BME280;6524;51.368;11.984;2023-06-14T16:32:32;100442.34;;;19.29;36.42
12913;BME280;6524;51.368;11.984;2023-06-14T16:37:33;100430.84;;;18.92;37.56
12913;BME280;6524;51.368;11.984;2023-06-14T16:42:34;100435.31;;;19.10;37.88
12913;BME280;6524;51.368;11.984;2023-06-14T16:47:34;100433.56;;;19.00;38.34
12913;BME280;6524;51.368;11.984;2023-06-14T16:52:35;100440.31;;;18.69;39.70
12913;BME280;6524;51.368;11.984;2023-06-14T16:57:37;100438.19;;;18.27;39.14
12913;BME280;6524;51.368;11.984;2023-06-14T17:02:38;100445.09;;;18.20;39.80
12913;BME280;6524;51.368;11.984;2023-06-14T17:07:39;100442.34;;;18.12;40.37
12913;BME280;6524;51.368;11.984;2023-06-14T17:12:40;100447.69;;;17.74;40.78
12913;BME280;6524;51.368;11.984;2023-06-14T17:17:41;100450.06;;;17.87;40.45
12913;BME280;6524;51.368;11.984;2023-06-14T17:22:41;100447.81;;;17.92;39.75
12913;BME280;6524;51.368;11.984;2023-06-14T17:27:42;100455.09;;;17.90;40.24
12913;BME280;6524;51.368;11.984;2023-06-14T17:32:42;100457.38;;;17.85;41.14
12913;BME280;6524;51.368;11.984;2023-06-14T17:37:43;100455.34;;;17.97;40.37
12913;BME280;6524;51.368;11.984;2023-06-14T17:42:43;100450.41;;;17.65;40.66
12913;BME280;6524;51.368;11.984;2023-06-14T17:47:44;100457.19;;;18.24;40.31
12913;BME280;6524;51.368;11.984;2023-06-14T17:52:44;100447.16;;;18.36;39.93
12913;BME280;6524;51.368;11.984;2023-06-14T17:57:45;100449.56;;;18.29;40.36
12913;BME280;6524;51.368;11.984;2023-06-14T18:02:46;100452.38;;;18.27;40.31
12913;BME280;6524;51.368;11.984;2023-06-14T18:07:48;100453.38;;;17.99;40.15
12913;BME280;6524;51.368;11.984;2023-06-14T18:12:49;100457.38;;;18.13;39.82
12913;BME280;6524;51.368;11.984;2023-06-14T18:17:49;100457.97;;;18.06;40.87
12913;BME280;6524;51.368;11.984;2023-06-14T18:22:50;100456.50;;;17.94;41.41
12913;BME280;6524;51.368;11.984;2023-06-14T18:27:51;100456.25;;;17.78;41.69
12913;BME280;6524;51.368;11.984;2023-06-14T18:32:51;100453.44;;;17.89;41.40
12913;BME280;6524;51.368;11.984;2023-06-14T18:37:52;100456.00;;;17.81;42.03
12913;BME280;6524;51.368;11.984;2023-06-14T18:42:53;100456.53;;;17.75;42.44
12913;BME280;6524;51.368;11.984;2023-06-14T18:47:54;100451.84;;;17.49;43.39
12913;BME280;6524;51.368;11.984;2023-06-14T18:52:54;100463.69;;;17.37;43.90
12913;BME280;6524;51.368;11.984;2023-06-14T18:57:58;100472.44;;;17.20;44.44
12913;BME280;6524;51.368;11.984;2023-06-14T19:02:58;100458.63;;;17.34;44.53
12913;BME280;6524;51.368;11.984;2023-06-14T19:07:59;100462.88;;;17.17;44.68
12913;BME280;6524;51.368;11.984;2023-06-14T19:13:01;100479.13;;;16.85;44.94
12913;BME280;6524;51.368;11.984;2023-06-14T19:18:02;100465.66;;;16.86;45.26
12913;BME280;6524;51.368;11.984;2023-06-14T19:23:05;100475.59;;;16.75;46.02
12913;BME280;6524;51.368;11.984;2023-06-14T19:28:06;100468.44;;;16.75;45.71
12913;BME280;6524;51.368;11.984;2023-06-14T19:33:06;100463.53;;;16.61;46.30
12913;BME280;6524;51.368;11.984;2023-06-14T19:38:07;100473.47;;;16.49;46.64
12913;BME280;6524;51.368;11.984;2023-06-14T19:43:07;100489.13;;;16.33;47.43
12913;BME280;6524;51.368;11.984;2023-06-14T19:48:08;100492.47;;;16.35;47.50
12913;BME280;6524;51.368;11.984;2023-06-14T19:53:09;100495.00;;;16.27;47.73
12913;BME280;6524;51.368;11.984;2023-06-14T19:58:10;100493.78;;;16.10;48.66
12913;BME280;6524;51.368;11.984;2023-06-14T20:03:10;100501.63;;;16.01;48.73
12913;BME280;6524;51.368;11.984;2023-06-14T20:08:12;100505.47;;;15.88;48.35
12913;BME280;6524;51.368;11.984;2023-06-14T20:13:13;100506.59;;;15.64;49.18
12913;BME280;6524;51.368;11.984;2023-06-14T20:18:14;100502.09;;;15.44;49.77
12913;BME280;6524;51.368;11.984;2023-06-14T20:23:14;100496.84;;;15.12;50.17
12913;BME280;6524;51.368;11.984;2023-06-14T20:28:15;100498.44;;;15.03;50.52
12913;BME280;6524;51.368;11.984;2023-06-14T20:33:15;100496.06;;;14.89;51.36
12913;BME280;6524;51.368;11.984;2023-06-14T20:38:16;100499.66;;;14.87;50.67
12913;BME280;6524;51.368;11.984;2023-06-14T20:43:18;100493.44;;;14.77;51.31
12913;BME280;6524;51.368;11.984;2023-06-14T20:48:18;100495.16;;;14.56;51.78
12913;BME280;6524;51.368;11.984;2023-06-14T20:53:19;100496.16;;;14.44;51.99
12913;BME280;6524;51.368;11.984;2023-06-14T20:58:20;100494.50;;;14.31;52.57
12913;BME280;6524;51.368;11.984;2023-06-14T21:03:21;100494.00;;;14.37;51.91
12913;BME280;6524;51.368;11.984;2023-06-14T21:08:24;100495.44;;;14.08;53.00
12913;BME280;6524;51.368;11.984;2023-06-14T21:13:25;100492.19;;;13.93;53.39
12913;BME280;6524;51.368;11.984;2023-06-14T21:18:25;100491.81;;;13.64;54.12
12913;BME280;6524;51.368;11.984;2023-06-14T21:23:26;100492.88;;;13.50;54.95
12913;BME280;6524;51.368;11.984;2023-06-14T21:28:26;100496.41;;;13.73;54.00
12913;BME280;6524;51.368;11.984;2023-06-14T21:33:27;100493.38;;;13.78;53.63
12913;BME280;6524;51.368;11.984;2023-06-14T21:38:28;100489.75;;;13.56;55.17
12913;BME280;6524;51.368;11.984;2023-06-14T21:43:29;100499.41;;;13.33;55.53
12913;BME280;6524;51.368;11.984;2023-06-14T21:48:30;100505.72;;;13.43;55.27
12913;BME280;6524;51.368;11.984;2023-06-14T21:53:30;100499.38;;;13.22;55.94
12913;BME280;6524;51.368;11.984;2023-06-14T21:58:32;100496.13;;;12.70;57.74
12913;BME280;6524;51.368;11.984;2023-06-14T22:03:32;100499.63;;;12.71;57.50
12913;BME280;6524;51.368;11.984;2023-06-14T22:08:33;100505.22;;;12.79;57.80
12913;BME280;6524;51.368;11.984;2023-06-14T22:13:34;100501.66;;;12.91;57.71
12913;BME280;6524;51.368;11.984;2023-06-14T22:18:35;100503.47;;;12.91;57.24
12913;BME280;6524;51.368;11.984;2023-06-14T22:23:36;100502.63;;;12.90;57.32
12913;BME280;6524;51.368;11.984;2023-06-14T22:28:36;100508.16;;;12.87;57.53
12913;BME280;6524;51.368;11.984;2023-06-14T22:33:43;100508.38;;;12.84;57.98
12913;BME280;6524;51.368;11.984;2023-06-14T22:38:45;100502.28;;;12.71;58.10
12913;BME280;6524;51.368;11.984;2023-06-14T22:43:47;100501.25;;;12.61;58.31
12913;BME280;6524;51.368;11.984;2023-06-14T22:48:48;100506.13;;;12.67;58.84
12913;BME280;6524;51.368;11.984;2023-06-14T22:53:53;100502.31;;;12.58;59.08
12913;BME280;6524;51.368;11.984;2023-06-14T22:58:53;100505.81;;;12.59;58.94
12913;BME280;6524;51.368;11.984;2023-06-14T23:03:54;100507.34;;;12.37;59.64
12913;BME280;6524;51.368;11.984;2023-06-14T23:08:56;100510.69;;;12.15;60.88
12913;BME280;6524;51.368;11.984;2023-06-14T23:14:00;100503.03;;;12.10;60.49
12913;BME280;6524;51.368;11.984;2023-06-14T23:19:00;100504.44;;;11.78;61.92
12913;BME280;6524;51.368;11.984;2023-06-14T23:24:01;100503.66;;;11.50;62.81
12913;BME280;6524;51.368;11.984;2023-06-14T23:29:02;100499.59;;;11.32;63.52
12913;BME280;6524;51.368;11.984;2023-06-14T23:34:04;100500.03;;;11.38;63.52
12913;BME280;6524;51.368;11.984;2023-06-14T23:39:04;100499.00;;;11.41;62.93
12913;BME280;6524;51.368;11.984;2023-06-14T23:44:06;100495.28;;;11.31;63.20
12913;BME280;6524;51.368;11.984;2023-06-14T23:49:06;100497.00;;;11.05;64.40
12913;BME280;6524;51.368;11.984;2023-06-14T23:54:08;100492.78;;;10.75;64.79
12913;BME280;6524;51.368;11.984;2023-06-14T23:59:09;100487.25;;;10.51;65.95
